Time;durP1;ratioP1;P1;durP2;ratioP2;P2;SDS_P1;SDS_P2;PMS_P1;PMS_P2;Temp;Humidity;BMP_temperature;BMP_pressure;BME280_temperature;BME280_humidity;BME280_pressure;Samples;Min_cycle;Max_cycle;Signal;HPM_P1;HPM_P2
2021/11/13 00:01:38;;;;;;;36.13;24.20;;;;;;;;;;4999449;28;20693;-75
2021/11/13 00:04:04;;;;;;;36.33;23.90;;;;;;;;;;5014210;28;20290;-75
2021/11/13 00:06:34;;;;;;;33.30;24.07;;;;;;;;;;5030640;28;20303;-75
2021/11/13 00:09:04;;;;;;;35.47;23.97;;;;;;;;;;5020139;28;20251;-74
2021/11/13 00:11:29;;;;;;;32.93;23.20;;;;;;;;;;5064393;28;20239;-76
2021/11/13 00:14:01;;;;;;;33.03;22.67;;;;;;;;;;5043656;28;20225;-74
2021/11/13 00:16:33;;;;;;;30.67;22.17;;;;;;;;;;5023700;28;20232;-74
2021/11/13 00:18:58;;;;;;;31.83;23.30;;;;;;;;;;5012747;28;20246;-75
2021/11/13 00:21:29;;;;;;;29.57;22.07;;;;;;;;;;5028625;28;20216;-74
2021/11/13 00:23:54;;;;;;;30.83;22.50;;;;;;;;;;5030057;28;20231;-74
2021/11/13 00:26:22;;;;;;;31.17;22.57;;;;;;;;;;5009496;28;20240;-74
2021/11/13 00:28:50;;;;;;;31.67;22.77;;;;;;;;;;5016624;28;20222;-74
2021/11/13 00:31:15;;;;;;;31.73;23.00;;;;;;;;;;5014736;28;20778;-75
2021/11/13 00:33:43;;;;;;;30.57;22.47;;;;;;;;;;5014077;28;20224;-75
2021/11/13 00:36:09;;;;;;;30.53;22.20;;;;;;;;;;5012732;28;20285;-73
2021/11/13 00:38:34;;;;;;;30.53;22.17;;;;;;;;;;5030412;28;20222;-75
2021/11/13 00:41:03;;;;;;;31.57;21.33;;;;;;;;;;5029894;28;20609;-75
2021/11/13 00:43:28;;;;;;;31.10;23.73;;;;;;;;;;5028472;28;20243;-75
2021/11/13 00:45:56;;;;;;;29.93;22.73;;;;;;;;;;5029696;28;20641;-75
2021/11/13 00:48:22;;;;;;;29.77;21.67;;;;;;;;;;5013176;28;20232;-75
2021/11/13 00:50:49;;;;;;;31.57;22.50;;;;;;;;;;5027740;28;20216;-75
2021/11/13 00:53:18;;;;;;;32.63;23.27;;;;;;;;;;5017176;28;20228;-75
2021/11/13 00:55:44;;;;;;;33.03;24.23;;;;;;;;;;5027985;28;20220;-75
2021/11/13 00:58:15;;;;;;;28.87;21.70;;;;;;;;;;4995975;28;20234;-75
2021/11/13 01:00:42;;;;;;;29.67;22.23;;;;;;;;;;5029906;28;20224;-75
2021/11/13 01:03:10;;;;;;;27.27;21.40;;;;;;;;;;5012904;28;20220;-75
2021/11/13 01:05:37;;;;;;;31.43;22.17;;;;;;;;;;5030321;28;20223;-75
2021/11/13 01:08:10;;;;;;;29.43;21.27;;;;;;;;;;5009011;28;20556;-75
2021/11/13 01:10:36;;;;;;;27.23;21.17;;;;;;;;;;5013513;28;20856;-75
2021/11/13 01:13:02;;;;;;;29.60;21.80;;;;;;;;;;5004083;28;20878;-75
2021/11/13 01:15:27;;;;;;;27.30;20.73;;;;;;;;;;5029032;28;20240;-74
2021/11/13 01:17:54;;;;;;;25.03;20.50;;;;;;;;;;5013190;28;20216;-74
2021/11/13 01:20:23;;;;;;;29.80;20.73;;;;;;;;;;5012389;28;20216;-75
2021/11/13 01:22:48;;;;;;;27.33;20.03;;;;;;;;;;4996324;28;20231;-75
2021/11/13 01:25:19;;;;;;;27.20;20.80;;;;;;;;;;4995917;28;20212;-75
2021/11/13 01:27:47;;;;;;;28.07;20.27;;;;;;;;;;5012885;28;20629;-75
2021/11/13 01:30:15;;;;;;;31.17;21.30;;;;;;;;;;4996193;28;20223;-75
2021/11/13 01:32:43;;;;;;;27.03;19.80;;;;;;;;;;5012742;28;20729;-75
2021/11/13 01:35:08;;;;;;;27.83;21.33;;;;;;;;;;5028914;28;20224;-74
2021/11/13 01:37:34;;;;;;;32.60;20.67;;;;;;;;;;5030347;28;20224;-75
2021/11/13 01:40:03;;;;;;;28.60;20.90;;;;;;;;;;5029846;28;20247;-74
2021/11/13 01:42:31;;;;;;;26.77;20.93;;;;;;;;;;5014166;28;20681;-73
2021/11/13 01:44:56;;;;;;;26.60;20.50;;;;;;;;;;5029290;28;20289;-75
2021/11/13 01:47:24;;;;;;;30.63;21.23;;;;;;;;;;5012756;28;20250;-74
2021/11/13 01:49:50;;;;;;;26.57;20.30;;;;;;;;;;5013808;28;20224;-73
2021/11/13 01:52:16;;;;;;;28.80;21.63;;;;;;;;;;5012471;28;20244;-74
2021/11/13 01:54:42;;;;;;;27.73;21.40;;;;;;;;;;5008183;28;20598;-74
2021/11/13 01:57:12;;;;;;;26.20;19.50;;;;;;;;;;5016327;28;20246;-74
2021/11/13 01:59:40;;;;;;;29.93;21.63;;;;;;;;;;5033337;28;20224;-74
2021/11/13 02:02:10;;;;;;;26.57;20.87;;;;;;;;;;4999838;28;20228;-74
2021/11/13 02:04:36;;;;;;;27.77;21.17;;;;;;;;;;5032443;28;20282;-73
2021/11/13 02:07:04;;;;;;;30.03;21.87;;;;;;;;;;5016452;28;20220;-74
2021/11/13 02:09:30;;;;;;;28.47;21.07;;;;;;;;;;5033052;28;20583;-74
2021/11/13 02:12:00;;;;;;;29.30;20.63;;;;;;;;;;4990362;28;20228;-74
2021/11/13 02:14:31;;;;;;;26.93;20.23;;;;;;;;;;5015739;28;20689;-73
2021/11/13 02:16:57;;;;;;;26.53;19.73;;;;;;;;;;5032613;28;20245;-74
2021/11/13 02:19:27;;;;;;;28.30;20.57;;;;;;;;;;4985141;28;20217;-74
2021/11/13 02:21:58;;;;;;;25.37;19.93;;;;;;;;;;4996855;28;20240;-74
2021/11/13 02:24:28;;;;;;;25.40;19.83;;;;;;;;;;5004988;28;20220;-74
2021/11/13 02:26:56;;;;;;;27.57;19.73;;;;;;;;;;5016015;28;20212;-74
2021/11/13 02:29:22;;;;;;;27.53;19.83;;;;;;;;;;5015514;28;20232;-74
2021/11/13 02:31:50;;;;;;;28.10;19.83;;;;;;;;;;5016143;28;20226;-74
2021/11/13 02:34:15;;;;;;;25.77;18.77;;;;;;;;;;4995674;28;20310;-73
2021/11/13 02:36:41;;;;;;;25.80;19.37;;;;;;;;;;5012393;28;20714;-74
2021/11/13 02:39:11;;;;;;;24.10;19.73;;;;;;;;;;4999940;28;20243;-74
2021/11/13 02:41:42;;;;;;;23.00;18.17;;;;;;;;;;5031988;28;20303;-74
2021/11/13 02:44:11;;;;;;;24.30;18.93;;;;;;;;;;5031776;28;20315;-75
2021/11/13 02:46:39;;;;;;;22.67;18.20;;;;;;;;;;5015978;28;20216;-75
2021/11/13 02:49:05;;;;;;;25.93;18.77;;;;;;;;;;5015430;28;20760;-75
2021/11/13 02:51:33;;;;;;;25.17;18.90;;;;;;;;;;4998989;28;20240;-74
2021/11/13 02:53:59;;;;;;;24.10;17.63;;;;;;;;;;5015939;28;20220;-74
2021/11/13 02:56:31;;;;;;;25.50;18.90;;;;;;;;;;5000072;28;20232;-75
2021/11/13 02:58:57;;;;;;;26.20;18.80;;;;;;;;;;5031673;28;20228;-75
2021/11/13 03:01:28;;;;;;;24.10;18.37;;;;;;;;;;5015022;28;20222;-75
2021/11/13 03:03:54;;;;;;;24.87;18.47;;;;;;;;;;5030924;28;20224;-75
2021/11/13 03:06:20;;;;;;;23.23;18.33;;;;;;;;;;5013317;28;20701;-75
2021/11/13 03:08:46;;;;;;;22.50;17.97;;;;;;;;;;4998980;28;20246;-76
2021/11/13 03:11:13;;;;;;;23.57;18.23;;;;;;;;;;5035963;28;20220;-75
2021/11/13 03:13:43;;;;;;;22.00;17.30;;;;;;;;;;5014900;28;20701;-74
2021/11/13 03:16:11;;;;;;;23.43;16.67;;;;;;;;;;5014454;28;20228;-74
2021/11/13 03:18:37;;;;;;;24.10;18.03;;;;;;;;;;5031542;28;20266;-74
2021/11/13 03:21:08;;;;;;;24.73;18.33;;;;;;;;;;5025463;28;20211;-74
2021/11/13 03:23:39;;;;;;;25.37;17.70;;;;;;;;;;5000247;28;20223;-75
2021/11/13 03:26:08;;;;;;;24.27;18.17;;;;;;;;;;4994537;28;20220;-75
2021/11/13 03:28:37;;;;;;;21.50;16.73;;;;;;;;;;4996392;28;20698;-75
2021/11/13 03:31:04;;;;;;;23.23;17.63;;;;;;;;;;4998562;28;20231;-75
2021/11/13 03:33:30;;;;;;;22.43;17.43;;;;;;;;;;5014847;28;20224;-75
2021/11/13 03:36:01;;;;;;;22.43;16.77;;;;;;;;;;5030306;28;20231;-75
2021/11/13 03:38:29;;;;;;;23.00;17.33;;;;;;;;;;5031018;28;20685;-74
2021/11/13 03:40:55;;;;;;;24.80;17.37;;;;;;;;;;5014917;28;20224;-74
2021/11/13 03:43:21;;;;;;;22.63;16.60;;;;;;;;;;4997969;28;20307;-75
2021/11/13 03:45:52;;;;;;;23.80;16.97;;;;;;;;;;5030381;28;20212;-75
2021/11/13 03:48:22;;;;;;;20.90;16.83;;;;;;;;;;5030871;28;20227;-75
2021/11/13 03:50:51;;;;;;;20.87;16.73;;;;;;;;;;5030592;28;20243;-75
2021/11/13 03:53:19;;;;;;;19.93;16.17;;;;;;;;;;5031645;28;20216;-74
2021/11/13 03:55:44;;;;;;;22.93;16.93;;;;;;;;;;5010712;28;20229;-74
2021/11/13 03:58:14;;;;;;;23.93;17.57;;;;;;;;;;5010713;28;20303;-74
2021/11/13 04:00:39;;;;;;;20.07;15.60;;;;;;;;;;4982383;28;20216;-74
2021/11/13 04:03:07;;;;;;;20.37;15.73;;;;;;;;;;4977811;28;20724;-75
2021/11/13 04:05:33;;;;;;;17.87;15.37;;;;;;;;;;4998525;28;20278;-75
2021/11/13 04:08:06;;;;;;;20.43;16.43;;;;;;;;;;5032037;28;20224;-76
2021/11/13 04:10:32;;;;;;;22.23;16.20;;;;;;;;;;5030166;28;20216;-74
2021/11/13 04:13:00;;;;;;;19.63;15.43;;;;;;;;;;5021649;28;20612;-74
2021/11/13 04:15:28;;;;;;;21.73;16.70;;;;;;;;;;5012914;28;20239;-74
2021/11/13 04:17:53;;;;;;;20.17;15.57;;;;;;;;;;5014064;28;20235;-76
2021/11/13 04:20:19;;;;;;;19.57;16.23;;;;;;;;;;4997107;28;20613;-74
2021/11/13 04:22:45;;;;;;;21.13;15.67;;;;;;;;;;5030128;28;20665;-74
2021/11/13 04:25:11;;;;;;;20.20;16.07;;;;;;;;;;4996765;28;20216;-74
2021/11/13 04:27:39;;;;;;;19.13;15.17;;;;;;;;;;5014253;28;20216;-74
2021/11/13 04:30:08;;;;;;;19.90;14.83;;;;;;;;;;5013048;28;20216;-74
2021/11/13 04:32:36;;;;;;;20.97;15.40;;;;;;;;;;5010476;28;20728;-74
2021/11/13 04:37:27;;;;;;;20.13;15.60;;;;;;;;;;5025432;28;20661;-76
2021/11/13 04:39:55;;;;;;;18.43;15.10;;;;;;;;;;5030350;28;20255;-74
2021/11/13 04:42:23;;;;;;;20.07;15.40;;;;;;;;;;5029297;28;20262;-74
2021/11/13 04:44:49;;;;;;;19.80;14.63;;;;;;;;;;5009773;28;20228;-74
2021/11/13 04:47:17;;;;;;;20.00;15.60;;;;;;;;;;5021529;28;20318;-74
2021/11/13 04:49:44;;;;;;;19.37;15.30;;;;;;;;;;5030231;28;20310;-74
2021/11/13 04:52:10;;;;;;;20.77;16.20;;;;;;;;;;5020386;28;20314;-73
2021/11/13 04:54:36;;;;;;;21.17;15.90;;;;;;;;;;5029377;28;20216;-76
2021/11/13 04:57:02;;;;;;;18.53;14.83;;;;;;;;;;5026313;28;20224;-74
2021/11/13 04:59:27;;;;;;;20.50;14.97;;;;;;;;;;5009730;28;20249;-74
2021/11/13 05:01:55;;;;;;;20.00;15.67;;;;;;;;;;5000465;28;20220;-74
2021/11/13 05:04:23;;;;;;;20.17;15.53;;;;;;;;;;5011139;28;20322;-74
2021/11/13 05:06:49;;;;;;;21.97;16.27;;;;;;;;;;5024991;28;20307;-76
2021/11/13 05:09:17;;;;;;;21.20;16.53;;;;;;;;;;5028009;28;20275;-75
2021/11/13 05:11:43;;;;;;;21.17;16.17;;;;;;;;;;5018035;28;20311;-76
2021/11/13 05:14:12;;;;;;;21.90;16.80;;;;;;;;;;5029922;28;20311;-75
2021/11/13 05:16:38;;;;;;;21.80;16.90;;;;;;;;;;5013222;28;20331;-74
2021/11/13 05:19:08;;;;;;;20.30;16.03;;;;;;;;;;5012324;28;20232;-74
2021/11/13 05:21:35;;;;;;;20.00;16.30;;;;;;;;;;4997088;28;20231;-75
2021/11/13 05:24:05;;;;;;;22.87;16.97;;;;;;;;;;5028875;28;20216;-74
2021/11/13 05:26:33;;;;;;;24.03;17.83;;;;;;;;;;5029062;28;20761;-74
2021/11/13 05:28:58;;;;;;;24.73;17.43;;;;;;;;;;5012562;28;20220;-75
2021/11/13 05:31:28;;;;;;;26.77;17.77;;;;;;;;;;5008270;28;20216;-74
2021/11/13 05:33:54;;;;;;;26.00;19.03;;;;;;;;;;4997070;28;20215;-75
2021/11/13 05:36:20;;;;;;;26.03;19.03;;;;;;;;;;5044923;28;20631;-75
2021/11/13 05:38:45;;;;;;;27.57;18.50;;;;;;;;;;5012467;28;20226;-75
2021/11/13 05:41:10;;;;;;;30.63;19.10;;;;;;;;;;5028283;28;20212;-75
2021/11/13 05:43:36;;;;;;;25.67;18.17;;;;;;;;;;5001533;28;20221;-75
2021/11/13 05:46:02;;;;;;;25.70;19.10;;;;;;;;;;4992497;28;20250;-75
2021/11/13 05:48:32;;;;;;;26.60;18.60;;;;;;;;;;5012375;28;20212;-74
2021/11/13 05:51:00;;;;;;;30.00;19.33;;;;;;;;;;5013222;28;20247;-75
2021/11/13 05:53:26;;;;;;;27.93;19.57;;;;;;;;;;5005802;28;20216;-75
2021/11/13 05:55:54;;;;;;;28.77;20.00;;;;;;;;;;5025456;28;20260;-74
2021/11/13 05:58:19;;;;;;;30.13;20.77;;;;;;;;;;5028405;28;20340;-74
2021/11/13 06:00:46;;;;;;;30.37;19.87;;;;;;;;;;5025523;28;20228;-76
2021/11/13 06:03:12;;;;;;;31.00;20.30;;;;;;;;;;5028109;28;20219;-75
2021/11/13 06:05:37;;;;;;;30.90;20.43;;;;;;;;;;5012360;28;20278;-74
2021/11/13 06:08:08;;;;;;;30.00;19.53;;;;;;;;;;5016031;28;20207;-74
2021/11/13 06:10:35;;;;;;;29.00;20.53;;;;;;;;;;4993176;28;20243;-74
2021/11/13 06:13:03;;;;;;;33.87;21.23;;;;;;;;;;5012075;28;20604;-75
2021/11/13 06:15:34;;;;;;;32.97;21.97;;;;;;;;;;5029469;28;20315;-74
2021/11/13 06:18:02;;;;;;;34.17;20.90;;;;;;;;;;5027717;28;20248;-74
2021/11/13 06:20:27;;;;;;;31.47;21.23;;;;;;;;;;5028620;28;20597;-74
2021/11/13 06:22:53;;;;;;;32.53;21.17;;;;;;;;;;5012064;28;20239;-76
2021/11/13 06:25:21;;;;;;;34.73;21.17;;;;;;;;;;4995708;28;20219;-74
2021/11/13 06:27:47;;;;;;;35.63;22.03;;;;;;;;;;5030042;28;20752;-75
2021/11/13 06:30:13;;;;;;;34.20;22.20;;;;;;;;;;5027568;28;20235;-74
2021/11/13 06:32:39;;;;;;;31.67;20.93;;;;;;;;;;4996037;28;20901;-75
2021/11/13 06:35:10;;;;;;;33.53;22.10;;;;;;;;;;4995247;28;20843;-75
2021/11/13 06:37:38;;;;;;;38.37;22.07;;;;;;;;;;5012452;28;20354;-75
2021/11/13 06:40:05;;;;;;;39.37;22.53;;;;;;;;;;5010611;28;20651;-75
2021/11/13 06:42:30;;;;;;;35.40;22.77;;;;;;;;;;4999470;28;20231;-74
2021/11/13 06:44:56;;;;;;;32.97;21.60;;;;;;;;;;4999259;28;20549;-75
2021/11/13 06:47:22;;;;;;;35.27;22.10;;;;;;;;;;5015437;28;20231;-75
2021/11/13 06:49:58;;;;;;;35.67;22.67;;;;;;;;;;5032383;28;20812;-75
2021/11/13 06:52:27;;;;;;;39.03;23.80;;;;;;;;;;5015277;28;20307;-75
2021/11/13 06:54:52;;;;;;;33.10;22.27;;;;;;;;;;4995950;28;20212;-74
2021/11/13 06:57:18;;;;;;;33.43;22.17;;;;;;;;;;4998622;28;20241;-75
2021/11/13 06:59:43;;;;;;;35.80;22.60;;;;;;;;;;5015716;28;20304;-75
2021/11/13 07:02:09;;;;;;;35.03;23.37;;;;;;;;;;5037983;28;20220;-74
2021/11/13 07:04:34;;;;;;;36.50;23.17;;;;;;;;;;5018879;28;20250;-74
2021/11/13 07:07:05;;;;;;;35.23;22.50;;;;;;;;;;5050915;28;20224;-74
2021/11/13 07:09:30;;;;;;;36.10;22.23;;;;;;;;;;5049949;28;20246;-73
2021/11/13 07:11:56;;;;;;;36.27;22.93;;;;;;;;;;5004231;28;20236;-75
2021/11/13 07:14:21;;;;;;;34.93;21.47;;;;;;;;;;5012348;28;20291;-74
2021/11/13 07:16:48;;;;;;;34.00;23.13;;;;;;;;;;4997717;28;20251;-75
2021/11/13 07:19:15;;;;;;;32.83;21.77;;;;;;;;;;5031313;28;20230;-75
2021/11/13 07:21:44;;;;;;;32.83;22.03;;;;;;;;;;5029457;28;20282;-74
2021/11/13 07:24:11;;;;;;;36.27;21.90;;;;;;;;;;5046065;28;20220;-74
2021/11/13 07:26:40;;;;;;;34.20;22.70;;;;;;;;;;5044715;28;20220;-74
2021/11/13 07:29:13;;;;;;;32.77;21.53;;;;;;;;;;5034291;28;20216;-74
2021/11/13 07:31:41;;;;;;;34.77;22.17;;;;;;;;;;5016467;28;20228;-75
2021/11/13 07:34:07;;;;;;;31.57;21.93;;;;;;;;;;5031463;28;20228;-74
2021/11/13 07:36:37;;;;;;;33.10;22.10;;;;;;;;;;5015470;28;20228;-75
2021/11/13 07:39:07;;;;;;;39.00;21.77;;;;;;;;;;4999715;28;20244;-75
2021/11/13 07:41:33;;;;;;;36.13;21.77;;;;;;;;;;5014769;28;20319;-75
2021/11/13 07:43:59;;;;;;;32.13;21.23;;;;;;;;;;5014515;28;20224;-75
2021/11/13 07:46:26;;;;;;;32.27;21.37;;;;;;;;;;5027926;28;20219;-76
2021/11/13 07:48:52;;;;;;;32.37;20.73;;;;;;;;;;5031344;28;20219;-75
2021/11/13 07:51:20;;;;;;;36.27;22.30;;;;;;;;;;5031615;28;20267;-74
2021/11/13 07:53:46;;;;;;;34.03;21.43;;;;;;;;;;5030571;28;20216;-75
2021/11/13 07:56:14;;;;;;;33.00;21.53;;;;;;;;;;5029750;28;20289;-75
2021/11/13 07:58:40;;;;;;;34.33;21.20;;;;;;;;;;5031091;28;20247;-74
2021/11/13 08:01:06;;;;;;;32.67;21.43;;;;;;;;;;4994266;28;20236;-74
2021/11/13 08:03:31;;;;;;;30.10;20.33;;;;;;;;;;4994749;28;20224;-74
2021/11/13 08:05:59;;;;;;;29.43;20.07;;;;;;;;;;5010335;28;20663;-75
2021/11/13 08:08:26;;;;;;;30.77;19.90;;;;;;;;;;5046844;28;20276;-75
2021/11/13 08:10:52;;;;;;;32.30;20.10;;;;;;;;;;4998208;28;20223;-74
2021/11/13 08:13:18;;;;;;;33.40;20.40;;;;;;;;;;5022060;28;20224;-74
2021/11/13 08:15:47;;;;;;;30.60;19.00;;;;;;;;;;5014212;28;20871;-73
2021/11/13 08:18:15;;;;;;;27.70;19.43;;;;;;;;;;5014426;28;20207;-73
2021/11/13 08:20:40;;;;;;;27.87;19.50;;;;;;;;;;5002647;28;20279;-74
2021/11/13 08:23:08;;;;;;;28.33;19.73;;;;;;;;;;4993650;28;20220;-72
2021/11/13 08:25:35;;;;;;;29.50;18.70;;;;;;;;;;5025784;28;20248;-74
2021/11/13 08:28:16;;;;;;;25.80;18.43;;;;;;;;;;5030284;28;20216;-74
2021/11/13 08:30:53;;;;;;;24.70;18.13;;;;;;;;;;5026686;28;20708;-74
2021/11/13 08:33:20;;;;;;;24.73;17.53;;;;;;;;;;5025111;28;20243;-74
2021/11/13 08:35:46;;;;;;;29.00;18.10;;;;;;;;;;5029788;28;20604;-74
2021/11/13 08:38:12;;;;;;;28.47;19.67;;;;;;;;;;5013744;28;20261;-74
2021/11/13 08:40:40;;;;;;;26.77;18.80;;;;;;;;;;5015713;28;20219;-74
2021/11/13 08:43:08;;;;;;;27.67;18.00;;;;;;;;;;5012496;28;20223;-75
2021/11/13 08:45:36;;;;;;;23.77;17.17;;;;;;;;;;5012771;28;20208;-75
2021/11/13 08:48:04;;;;;;;27.83;18.30;;;;;;;;;;5021556;28;20223;-74
2021/11/13 08:50:30;;;;;;;25.13;16.80;;;;;;;;;;4999966;28;20219;-74
2021/11/13 08:52:56;;;;;;;25.63;17.60;;;;;;;;;;4997105;28;20228;-75
2021/11/13 08:55:25;;;;;;;23.90;17.57;;;;;;;;;;4994098;28;20224;-75
2021/11/13 08:57:56;;;;;;;30.33;18.57;;;;;;;;;;5019527;28;20281;-77
2021/11/13 09:00:35;;;;;;;24.97;17.57;;;;;;;;;;4996940;28;20346;-75
2021/11/13 09:03:07;;;;;;;27.27;18.43;;;;;;;;;;5014626;28;20254;-74
2021/11/13 09:05:33;;;;;;;22.60;16.80;;;;;;;;;;5027489;28;20219;-74
2021/11/13 09:08:03;;;;;;;24.07;18.13;;;;;;;;;;4997944;28;20220;-74
2021/11/13 09:10:31;;;;;;;24.70;17.37;;;;;;;;;;5030188;28;20569;-74
2021/11/13 09:13:00;;;;;;;24.37;17.10;;;;;;;;;;5013658;28;20220;-74
2021/11/13 09:15:32;;;;;;;25.37;17.40;;;;;;;;;;5029399;28;20728;-74
2021/11/13 09:18:00;;;;;;;26.60;17.43;;;;;;;;;;5011572;28;20235;-76
2021/11/13 09:20:28;;;;;;;24.27;17.17;;;;;;;;;;5012266;28;20228;-74
2021/11/13 09:22:56;;;;;;;24.93;18.73;;;;;;;;;;5024402;28;20232;-74
2021/11/13 09:25:22;;;;;;;22.87;17.20;;;;;;;;;;5012312;28;20289;-74
2021/11/13 09:27:50;;;;;;;25.10;17.83;;;;;;;;;;4992669;28;20228;-74
2021/11/13 09:30:28;;;;;;;22.80;17.23;;;;;;;;;;4990988;28;20215;-74
2021/11/13 09:32:54;;;;;;;23.60;17.37;;;;;;;;;;5028765;28;20228;-74
2021/11/13 09:35:23;;;;;;;20.67;16.33;;;;;;;;;;4979876;28;20228;-75
2021/11/13 09:37:48;;;;;;;22.03;16.37;;;;;;;;;;5028486;28;20231;-75
2021/11/13 09:40:16;;;;;;;21.33;16.53;;;;;;;;;;5028991;28;20224;-75
2021/11/13 09:42:45;;;;;;;20.13;16.03;;;;;;;;;;4991400;28;20320;-75
2021/11/13 09:45:11;;;;;;;22.90;16.93;;;;;;;;;;5025759;28;20690;-75
2021/11/13 09:47:37;;;;;;;21.87;17.10;;;;;;;;;;5029294;28;20235;-75
2021/11/13 09:50:07;;;;;;;21.13;17.40;;;;;;;;;;5012481;28;20220;-74
2021/11/13 09:52:33;;;;;;;19.57;16.17;;;;;;;;;;5009530;28;20224;-74
2021/11/13 09:55:00;;;;;;;23.33;16.43;;;;;;;;;;5026335;28;20222;-74
2021/11/13 09:57:28;;;;;;;24.83;17.13;;;;;;;;;;5029086;28;20223;-74
2021/11/13 09:59:56;;;;;;;24.40;16.83;;;;;;;;;;4996823;28;20299;-74
2021/11/13 10:02:24;;;;;;;22.93;16.03;;;;;;;;;;5028467;28;20236;-75
2021/11/13 10:04:52;;;;;;;20.47;15.83;;;;;;;;;;4996153;28;20216;-75
2021/11/13 10:07:19;;;;;;;21.10;15.67;;;;;;;;;;5011902;28;20226;-74
2021/11/13 10:09:48;;;;;;;23.93;16.50;;;;;;;;;;5030896;28;20228;-74
2021/11/13 10:12:14;;;;;;;19.57;15.07;;;;;;;;;;5009439;28;20217;-75
2021/11/13 10:14:40;;;;;;;24.07;15.97;;;;;;;;;;5026941;28;20220;-76
2021/11/13 10:17:19;;;;;;;22.50;15.93;;;;;;;;;;5031839;28;20783;-75
2021/11/13 10:19:45;;;;;;;20.10;15.57;;;;;;;;;;5016835;28;20289;-75
2021/11/13 10:22:10;;;;;;;21.93;16.00;;;;;;;;;;5021114;28;20299;-75
2021/11/13 10:24:39;;;;;;;22.50;15.50;;;;;;;;;;5032984;28;20698;-74
2021/11/13 10:27:08;;;;;;;20.43;16.17;;;;;;;;;;5000506;28;20216;-74
2021/11/13 10:29:38;;;;;;;36.10;27.55;;;;;;;;;;4999411;28;20429;-74
2021/11/13 10:32:08;;;;;;;26.23;21.23;;;;;;;;;;5002065;28;20254;-75
2021/11/13 10:34:38;;;;;;;23.23;18.57;;;;;;;;;;5016136;28;20247;-73
2021/11/13 10:37:05;;;;;;;23.90;17.47;;;;;;;;;;5007699;28;20736;-74
2021/11/13 10:39:37;;;;;;;19.83;16.67;;;;;;;;;;5015728;28;20227;-74
2021/11/13 10:42:06;;;;;;;22.50;16.53;;;;;;;;;;5022908;28;20231;-74
2021/11/13 10:44:34;;;;;;;19.43;15.70;;;;;;;;;;5030780;28;20704;-76
2021/11/13 10:47:01;;;;;;;24.03;17.23;;;;;;;;;;4999148;28;20771;-78
2021/11/13 10:49:26;;;;;;;26.90;18.13;;;;;;;;;;5014675;28;20231;-74
2021/11/13 10:51:58;;;;;;;27.90;17.77;;;;;;;;;;5016167;28;20498;-74
2021/11/13 10:54:26;;;;;;;21.67;16.97;;;;;;;;;;5015488;28;20224;-75
2021/11/13 10:56:57;;;;;;;22.53;16.33;;;;;;;;;;5015575;28;20737;-74
2021/11/13 10:59:44;;;;;;;20.97;17.23;;;;;;;;;;4982986;28;20599;-75
2021/11/13 11:02:11;;;;;;;21.47;15.73;;;;;;;;;;5032929;28;20597;-76
2021/11/13 11:04:40;;;;;;;24.30;17.10;;;;;;;;;;5017321;28;20216;-74
2021/11/13 11:07:07;;;;;;;20.80;16.50;;;;;;;;;;5030811;28;20212;-77
2021/11/13 11:09:39;;;;;;;23.20;16.17;;;;;;;;;;5015517;28;20220;-73
2021/11/13 11:12:15;;;;;;;21.37;16.23;;;;;;;;;;4993818;28;20212;-78
2021/11/13 11:14:47;;;;;;;24.60;17.73;;;;;;;;;;5028449;28;20703;-73
2021/11/13 11:17:17;;;;;;;20.73;16.93;;;;;;;;;;5007625;28;20239;-76
2021/11/13 11:19:47;;;;;;;22.87;16.97;;;;;;;;;;5033089;28;20355;-75
2021/11/13 11:22:21;;;;;;;22.47;16.77;;;;;;;;;;4999088;28;20243;-74
2021/11/13 11:24:57;;;;;;;19.07;16.27;;;;;;;;;;5028286;28;20254;-74
2021/11/13 11:27:24;;;;;;;19.93;15.57;;;;;;;;;;5030606;28;20303;-74
2021/11/13 11:30:18;;;;;;;19.00;15.13;;;;;;;;;;5013740;28;20231;-74
2021/11/13 11:32:51;;;;;;;18.83;14.87;;;;;;;;;;5028716;28;20220;-74
2021/11/13 11:35:21;;;;;;;20.87;15.03;;;;;;;;;;5031333;28;20689;-72
2021/11/13 11:37:53;;;;;;;17.83;14.73;;;;;;;;;;5009300;28;20225;-74
2021/11/13 11:40:28;;;;;;;19.70;16.23;;;;;;;;;;5029383;28;20220;-72
2021/11/13 11:42:58;;;;;;;18.07;13.83;;;;;;;;;;5027813;28;20297;-71
2021/11/13 11:45:27;;;;;;;17.37;14.00;;;;;;;;;;4997111;28;20223;-72
2021/11/13 11:47:54;;;;;;;17.83;15.33;;;;;;;;;;5014544;28;20231;-72
2021/11/13 11:50:24;;;;;;;20.27;15.67;;;;;;;;;;5012996;28;20216;-72
2021/11/13 11:52:57;;;;;;;20.73;15.67;;;;;;;;;;5013400;28;20315;-72
2021/11/13 11:55:23;;;;;;;17.77;15.17;;;;;;;;;;5008903;28;20228;-73
2021/11/13 11:58:01;;;;;;;20.97;15.43;;;;;;;;;;5031414;28;20219;-73
2021/11/13 12:00:29;;;;;;;19.90;15.90;;;;;;;;;;5011833;28;20224;-73
2021/11/13 12:02:58;;;;;;;21.50;17.30;;;;;;;;;;5010906;28;20225;-73
2021/11/13 12:05:25;;;;;;;17.80;15.07;;;;;;;;;;5013079;28;20228;-72
2021/11/13 12:07:57;;;;;;;18.97;15.73;;;;;;;;;;4998708;28;20224;-72
2021/11/13 12:10:27;;;;;;;21.33;16.53;;;;;;;;;;5014380;28;20813;-72
2021/11/13 12:13:22;;;;;;;21.37;15.83;;;;;;;;;;5030127;28;20232;-73
2021/11/13 12:15:48;;;;;;;21.10;15.53;;;;;;;;;;5044154;28;20282;-73
2021/11/13 12:18:20;;;;;;;18.63;16.10;;;;;;;;;;5013125;28;20243;-73
2021/11/13 12:20:56;;;;;;;22.43;15.97;;;;;;;;;;5012836;28;20228;-73
2021/11/13 12:23:28;;;;;;;22.83;16.77;;;;;;;;;;5031578;28;20337;-73
2021/11/13 12:26:18;;;;;;;23.03;15.50;;;;;;;;;;4978744;28;20296;-73
2021/11/13 12:28:56;;;;;;;22.00;16.30;;;;;;;;;;5025376;28;20689;-75
2021/11/13 12:31:37;;;;;;;22.90;16.97;;;;;;;;;;4997329;28;20223;-73
2021/11/13 12:34:14;;;;;;;21.70;15.83;;;;;;;;;;5012910;28;20212;-72
2021/11/13 12:36:51;;;;;;;21.30;16.77;;;;;;;;;;5012806;28;20236;-73
2021/11/13 12:39:19;;;;;;;25.50;17.63;;;;;;;;;;4978937;28;20232;-73
2021/11/13 12:41:54;;;;;;;25.70;18.27;;;;;;;;;;5013435;28;20231;-73
2021/11/13 12:44:22;;;;;;;22.10;16.87;;;;;;;;;;5025520;28;20219;-72
2021/11/13 12:46:58;;;;;;;23.40;16.67;;;;;;;;;;4996539;28;20212;-73
2021/11/13 12:49:29;;;;;;;21.77;16.73;;;;;;;;;;4981297;28;20299;-73
2021/11/13 12:51:58;;;;;;;26.73;18.93;;;;;;;;;;5011225;28;20307;-73
2021/11/13 12:54:33;;;;;;;24.57;17.47;;;;;;;;;;5020805;28;20227;-72
2021/11/13 12:57:06;;;;;;;24.10;17.37;;;;;;;;;;5029671;28;20231;-71
2021/11/13 12:59:59;;;;;;;26.67;18.77;;;;;;;;;;5013798;28;20246;-73
2021/11/13 13:02:25;;;;;;;24.00;17.07;;;;;;;;;;5008891;28;20220;-72
2021/11/13 13:04:51;;;;;;;25.27;17.77;;;;;;;;;;4995866;28;20227;-73
2021/11/13 13:07:25;;;;;;;24.00;17.57;;;;;;;;;;5025415;28;20223;-76
2021/11/13 13:10:10;;;;;;;23.50;17.93;;;;;;;;;;5028097;28;20220;-72
2021/11/13 13:12:40;;;;;;;22.47;17.93;;;;;;;;;;4996202;28;20238;-74
2021/11/13 13:15:09;;;;;;;20.83;16.40;;;;;;;;;;5024845;28;20251;-73
2021/11/13 13:17:42;;;;;;;26.57;18.50;;;;;;;;;;4994428;28;20240;-73
2021/11/13 13:20:10;;;;;;;20.80;16.33;;;;;;;;;;5021854;28;20219;-72
2021/11/13 13:22:36;;;;;;;21.33;16.17;;;;;;;;;;5030255;28;20258;-72
2021/11/13 13:25:05;;;;;;;22.60;17.00;;;;;;;;;;5013502;28;20231;-74
2021/11/13 13:27:30;;;;;;;18.20;15.73;;;;;;;;;;5014211;28;20286;-73
2021/11/13 13:30:12;;;;;;;24.43;17.23;;;;;;;;;;4996932;28;20212;-73
2021/11/13 13:32:37;;;;;;;20.87;16.03;;;;;;;;;;5029507;28;20219;-72
2021/11/13 13:35:06;;;;;;;21.27;16.30;;;;;;;;;;5013690;28;20219;-73
2021/11/13 13:37:47;;;;;;;22.10;16.90;;;;;;;;;;5029483;28;20237;-72
2021/11/13 13:40:28;;;;;;;20.13;16.00;;;;;;;;;;5013972;28;20230;-74
2021/11/13 13:42:55;;;;;;;22.17;16.73;;;;;;;;;;5005852;28;20230;-73
2021/11/13 13:45:22;;;;;;;20.77;16.70;;;;;;;;;;5011905;28;20239;-74
2021/11/13 13:47:50;;;;;;;22.93;16.87;;;;;;;;;;4996531;28;20214;-72
2021/11/13 13:50:17;;;;;;;23.73;17.20;;;;;;;;;;5012182;28;20220;-72
2021/11/13 13:52:43;;;;;;;23.97;17.03;;;;;;;;;;4995444;28;20713;-73
2021/11/13 13:55:17;;;;;;;22.07;17.33;;;;;;;;;;4977145;28;20212;-72
2021/11/13 13:58:07;;;;;;;21.37;17.67;;;;;;;;;;5025768;28;20208;-72
2021/11/13 14:00:33;;;;;;;23.00;17.87;;;;;;;;;;5029072;28;20694;-71
2021/11/13 14:02:59;;;;;;;23.47;17.63;;;;;;;;;;5029406;28;20314;-71
2021/11/13 14:05:26;;;;;;;25.40;17.60;;;;;;;;;;5009082;28;20270;-73
2021/11/13 14:08:05;;;;;;;22.13;17.20;;;;;;;;;;5022595;28;20906;-72
2021/11/13 14:10:54;;;;;;;25.77;17.40;;;;;;;;;;5029116;28;20223;-72
2021/11/13 14:13:20;;;;;;;21.30;16.10;;;;;;;;;;5002992;28;20224;-72
2021/11/13 14:15:56;;;;;;;24.67;18.60;;;;;;;;;;4998584;28;20216;-71
2021/11/13 14:18:30;;;;;;;25.80;17.10;;;;;;;;;;5012378;28;20230;-71
2021/11/13 14:20:58;;;;;;;23.30;18.93;;;;;;;;;;4997654;28;20227;-72
2021/11/13 14:23:28;;;;;;;25.47;18.87;;;;;;;;;;5011628;28;20227;-71
2021/11/13 14:26:23;;;;;;;25.60;19.63;;;;;;;;;;5011952;28;20220;-71
2021/11/13 14:29:01;;;;;;;25.40;16.80;;;;;;;;;;5013621;28;20220;-72